Alleene, Arkansas
Current Conditions -  °F | °C
As of 4:30 AM on Saturday 01 Nov 2014 (Local Time) from KDEQ Reporting Station
Haze Haze  
Wind Chill: 31°   Ceiling: Unl
Heat Index: 31°   Visibility: 1.7mi
Dew Point: 30°   Wind: 3mph
Humidity: 96%   Direction: 40°NE
Pressure: 30.39"   Gusts: NA
Location:  33.77°N, 94.26°W
Report Text: KDEQ 010930Z AUTO 04003KT 1 3/4SM BR CLR M01/M01 A3039 RMK AO2 VIS 1V5 I1000 T10061011
Loading
Personal Weather Stations






























Interactive Weather Map
Tropical Storm Tracking
New forecast layout! Learn more

10-Day Weather Forecast

Advertisements
Track Severe Weather on mobile